^^
Your Local Weather - Clay, NY Station Historical Data
Daily Summary for May 14, 2017 Units:  English    Metric   Both
« Previous Day
Next Day »
Daily Weekly Monthly Yearly Custom
  High: Low: Average:
Temperature: 63.3 °F 42.9 °F 51.5 °F
Dew Point: 52.0 °F 40.0 °F 44.7 °F
Humidity: 94% 46% 79%
Wind Speed: 5.0mph 0.0mph 1.3mph
Wind Gust: 13.0mph - -
Wind- - West
Pressure: 29.76 in 29.58 in -
Precipitation: 0.40 in    
Historical Graphs
 
 
Tabular Data for May 14, 2017
Time Temperature Dew Point Pressure Wind Wind Speed Wind Gust Humidity Rainfall Rate (Hourly) solar
00:02 49.0 °F 46.5 °F 29.76 in Calm     91% 0.00 in 0 W/m2
00:08 49.0 °F 46.5 °F 29.76 in Calm     91% 0.00 in 0 W/m2
00:13 49.0 °F 46.5 °F 29.76 in Calm     91% 0.00 in 0 W/m2
00:19 49.0 °F 46.8 °F 29.76 in Calm     92% 0.00 in 0 W/m2
00:25 49.1 °F 46.9 °F 29.76 in Calm     92% 0.00 in 0 W/m2
00:32 49.2 °F 47.0 °F 29.76 in Calm   1.0 mph 92% 0.00 in 0 W/m2
00:38 49.2 °F 47.0 °F 29.75 in Calm   1.0 mph 92% 0.00 in 0 W/m2
00:43 49.2 °F 47.0 °F 29.75 in Calm     92% 0.00 in 0 W/m2
00:49 49.2 °F 47.0 °F 29.75 in Calm     92% 0.00 in 0 W/m2
00:55 49.1 °F 46.9 °F 29.75 in Calm     92% 0.00 in 0 W/m2
01:02 49.1 °F 46.9 °F 29.75 in Calm     92% 0.00 in 0 W/m2
01:08 49.0 °F 46.8 °F 29.75 in Calm     92% 0.00 in 0 W/m2
01:13 49.0 °F 46.8 °F 29.75 in Calm     92% 0.00 in 0 W/m2
01:19 49.0 °F 46.8 °F 29.74 in Calm     92% 0.00 in 0 W/m2
01:23 49.0 °F 46.8 °F 29.75 in Calm     92% 0.00 in 0 W/m2
01:29 49.0 °F 46.8 °F 29.74 in Calm     92% 0.00 in 0 W/m2
01:35 49.0 °F 46.8 °F 29.74 in Calm   1.0 mph 92% 0.00 in 0 W/m2
01:41 49.0 °F 46.8 °F 29.74 in Calm     92% 0.00 in 0 W/m2
01:48 48.9 °F 46.7 °F 29.74 in Calm     92% 0.00 in 0 W/m2
01:53 48.8 °F 46.6 °F 29.74 in Calm     92% 0.00 in 0 W/m2
01:59 48.6 °F 46.4 °F 29.73 in Calm     92% 0.00 in 0 W/m2
02:05 48.4 °F 46.2 °F 29.73 in Calm     92% 0.00 in 0 W/m2
02:11 48.2 °F 46.0 °F 29.73 in Calm     92% 0.00 in 0 W/m2
02:18 47.9 °F 45.7 °F 29.73 in Calm     92% 0.00 in 0 W/m2
02:23 47.7 °F 45.5 °F 29.73 in Calm     92% 0.00 in 0 W/m2
02:29 47.4 °F 45.2 °F 29.73 in Calm     92% 0.00 in 0 W/m2
02:35 47.1 °F 44.9 °F 29.72 in Calm     92% 0.00 in 0 W/m2
02:42 46.9 °F 44.7 °F 29.72 in Calm     92% 0.00 in 0 W/m2
02:48 46.8 °F 44.6 °F 29.72 in Calm     92% 0.00 in 0 W/m2
02:53 46.8 °F 44.6 °F 29.72 in Calm     92% 0.00 in 0 W/m2
02:59 46.8 °F 44.6 °F 29.71 in Calm     92% 0.00 in 0 W/m2
03:05 46.8 °F 44.9 °F 29.71 in Calm     93% 0.00 in 0 W/m2
03:11 46.7 °F 44.5 °F 29.71 in Calm     92% 0.00 in 0 W/m2
03:18 46.4 °F 44.2 °F 29.71 in Calm     92% 0.00 in 0 W/m2
03:23 46.2 °F 44.3 °F 29.71 in Calm     93% 0.00 in 0 W/m2
03:29 46.1 °F 44.2 °F 29.71 in Calm     93% 0.00 in 0 W/m2
03:35 45.9 °F 44.0 °F 29.71 in Calm     93% 0.00 in 0 W/m2
03:42 45.6 °F 43.7 °F 29.71 in Calm     93% 0.00 in 0 W/m2
03:48 45.2 °F 43.0 °F 29.71 in Calm     92% 0.00 in 0 W/m2
03:53 44.9 °F 43.0 °F 29.71 in Calm     93% 0.00 in 0 W/m2
03:59 44.6 °F 42.4 °F 29.71 in Calm     92% 0.00 in 0 W/m2
04:05 44.4 °F 42.5 °F 29.71 in Calm     93% 0.00 in 0 W/m2
04:12 44.4 °F 42.5 °F 29.71 in Calm     93% 0.00 in 0 W/m2
04:18 44.3 °F 42.4 °F 29.71 in Calm     93% 0.00 in 0 W/m2
04:23 44.2 °F 42.3 °F 29.71 in Calm     93% 0.00 in 0 W/m2
04:28 44.0 °F 42.1 °F 29.71 in Calm     93% 0.00 in 0 W/m2
04:33 43.8 °F 41.9 °F 29.71 in Calm     93% 0.00 in 0 W/m2
04:39 43.6 °F 41.7 °F 29.70 in Calm     93% 0.00 in 0 W/m2
04:45 43.3 °F 41.4 °F 29.71 in Calm     93% 0.00 in 0 W/m2
04:52 43.1 °F 41.2 °F 29.71 in Calm     93% 0.00 in 0 W/m2
04:58 43.2 °F 41.3 °F 29.70 in Calm     93% 0.00 in 0 W/m2
05:03 43.1 °F 41.2 °F 29.70 in Calm     93% 0.00 in 0 W/m2
05:09 43.0 °F 41.1 °F 29.70 in Calm     93% 0.00 in 0 W/m2
05:15 42.9 °F 41.0 °F 29.70 in Calm     93% 0.00 in 0 W/m2
05:22 42.9 °F 41.0 °F 29.69 in Calm   1.0 mph 93% 0.00 in 0 W/m2
05:28 43.0 °F 41.1 °F 29.69 in Calm   1.0 mph 93% 0.00 in 0 W/m2
05:33 43.3 °F 41.4 °F 29.69 in Calm     93% 0.00 in 0 W/m2
05:39 43.6 °F 41.7 °F 29.69 in Calm     93% 0.00 in 0 W/m2
05:45 43.8 °F 41.9 °F 29.69 in Calm     93% 0.00 in 0 W/m2
05:53 44.1 °F 42.2 °F 29.69 in Calm   1.0 mph 93% 0.00 in 7 W/m2
05:59 44.0 °F 42.1 °F 29.69 in Calm     93% 0.00 in 11 W/m2
06:05 44.0 °F 42.1 °F 29.70 in Calm     93% 0.00 in 14 W/m2
06:12 44.0 °F 42.1 °F 29.70 in Calm     93% 0.00 in 21 W/m2
06:18 43.9 °F 42.0 °F 29.70 in Calm     93% 0.00 in 33 W/m2
06:23 43.8 °F 41.9 °F 29.70 in Calm     93% 0.00 in 32 W/m2
06:29 44.0 °F 42.1 °F 29.70 in Calm     93% 0.00 in 84 W/m2
06:35 44.4 °F 42.5 °F 29.70 in Calm     93% 0.00 in 95 W/m2
06:41 44.6 °F 43.0 °F 29.70 in Calm     94% 0.00 in 109 W/m2
06:48 45.3 °F 43.7 °F 29.71 in Calm     94% 0.00 in 135 W/m2
06:53 45.6 °F 44.0 °F 29.71 in Calm     94% 0.00 in 149 W/m2
06:59 46.2 °F 44.6 °F 29.71 in Calm     94% 0.00 in 132 W/m2
07:05 46.9 °F 45.3 °F 29.71 in Calm     94% 0.00 in 114 W/m2
07:12 47.0 °F 45.4 °F 29.71 in Calm     94% 0.00 in 91 W/m2
07:18 47.2 °F 45.6 °F 29.70 in Calm   1.0 mph 94% 0.00 in 88 W/m2
07:25 47.6 °F 46.0 °F 29.70 in ENE 1.0 mph 2.0 mph 94% 0.00 in 104 W/m2
07:32 47.7 °F 46.1 °F 29.70 in ENE 1.0 mph 1.0 mph 94% 0.00 in 109 W/m2
07:38 47.8 °F 46.2 °F 29.70 in East 1.0 mph 1.0 mph 94% 0.00 in 132 W/m2
07:43 48.1 °F 46.5 °F 29.69 in East 2.0 mph 5.0 mph 94% 0.00 in 113 W/m2
07:49 48.3 °F 46.7 °F 29.69 in East 1.0 mph 1.0 mph 94% 0.00 in 163 W/m2
07:55 48.5 °F 46.9 °F 29.69 in East 1.0 mph 2.0 mph 94% 0.00 in 162 W/m2
08:02 48.5 °F 46.9 °F 29.69 in East 1.0 mph 2.0 mph 94% 0.00 in 174 W/m2
08:08 48.8 °F 46.9 °F 29.69 in East 1.0 mph 2.0 mph 93% 0.00 in 202 W/m2
08:13 48.9 °F 47.0 °F 29.69 in SE 1.0 mph 4.0 mph 93% 0.00 in 181 W/m2
08:19 49.2 °F 47.3 °F 29.69 in SE 2.0 mph 3.0 mph 93% 0.00 in 213 W/m2
08:25 49.5 °F 47.6 °F 29.69 in SE 2.0 mph 3.0 mph 93% 0.00 in 316 W/m2
08:32 49.9 °F 47.7 °F 29.68 in SE 1.0 mph 1.0 mph 92% 0.00 in 237 W/m2
08:38 50.4 °F 48.2 °F 29.68 in SW 1.0 mph 1.0 mph 92% 0.00 in 225 W/m2
08:43 50.8 °F 48.3 °F 29.68 in South 1.0 mph 3.0 mph 91% 0.00 in 244 W/m2
08:49 50.6 °F 47.5 °F 29.68 in SE 1.0 mph 1.0 mph 89% 0.00 in 230 W/m2
08:55 50.8 °F 47.4 °F 29.68 in SE 1.0 mph 1.0 mph 88% 0.00 in 227 W/m2
09:02 51.1 °F 47.4 °F 29.68 in SSE 1.0 mph 1.0 mph 87% 0.00 in 250 W/m2
09:08 51.4 °F 47.4 °F 29.68 in Calm   1.0 mph 86% 0.00 in 234 W/m2
09:13 51.7 °F 47.0 °F 29.68 in SSE 1.0 mph 2.0 mph 84% 0.00 in 301 W/m2
09:19 52.3 °F 47.9 °F 29.68 in Calm     85% 0.00 in 253 W/m2
09:25 52.8 °F 48.1 °F 29.68 in Calm     84% 0.00 in 229 W/m2
09:31 52.6 °F 47.6 °F 29.68 in SSE 1.0 mph 1.0 mph 83% 0.00 in 295 W/m2
09:38 52.9 °F 47.6 °F 29.68 in SSE 1.0 mph 1.0 mph 82% 0.00 in 352 W/m2
09:43 53.5 °F 48.1 °F 29.68 in NE 1.0 mph 2.0 mph 82% 0.00 in 304 W/m2
09:49 53.7 °F 47.7 °F 29.68 in SSW 2.0 mph 3.0 mph 80% 0.00 in 309 W/m2
09:55 53.6 °F 47.9 °F 29.68 in SSW 1.0 mph 3.0 mph 81% 0.00 in 195 W/m2
10:02 53.5 °F 47.8 °F 29.68 in Calm   1.0 mph 81% 0.00 in 211 W/m2
10:08 53.5 °F 47.5 °F 29.67 in Calm   1.0 mph 80% 0.00 in 311 W/m2
10:13 53.8 °F 48.1 °F 29.67 in Calm   1.0 mph 81% 0.00 in 329 W/m2
10:19 54.4 °F 48.7 °F 29.67 in WNW 1.0 mph 1.0 mph 81% 0.00 in 448 W/m2
10:25 54.7 °F 48.0 °F 29.67 in WSW 1.0 mph 3.0 mph 78% 0.00 in 464 W/m2
10:31 55.4 °F 48.0 °F 29.67 in West 1.0 mph 2.0 mph 76% 0.00 in 1121 W/m2
10:38 56.8 °F 49.0 °F 29.66 in West 1.0 mph 2.0 mph 75% 0.00 in 260 W/m2
10:43 56.2 °F 48.4 °F 29.67 in SW 1.0 mph 2.0 mph 75% 0.00 in 193 W/m2
10:49 55.4 °F 48.3 °F 29.66 in SW 1.0 mph 1.0 mph 77% 0.00 in 258 W/m2
10:55 55.6 °F 48.5 °F 29.66 in Calm   1.0 mph 77% 0.00 in 294 W/m2
11:02 56.4 °F 48.6 °F 29.66 in NNW 1.0 mph 2.0 mph 75% 0.00 in 320 W/m2
11:08 56.3 °F 49.5 °F 29.66 in NNW 1.0 mph 2.0 mph 78% 0.00 in 1005 W/m2
11:13 56.9 °F 49.8 °F 29.66 in NNW 1.0 mph 2.0 mph 77% 0.00 in 297 W/m2
11:19 57.0 °F 48.8 °F 29.66 in NNW 1.0 mph 1.0 mph 74% 0.00 in 213 W/m2
11:25 56.8 °F 48.6 °F 29.66 in Calm   1.0 mph 74% 0.00 in 160 W/m2
11:31 56.2 °F 48.4 °F 29.65 in South 2.0 mph 4.0 mph 75% 0.00 in 116 W/m2
11:38 55.5 °F 48.4 °F 29.66 in SW 2.0 mph 4.0 mph 77% 0.00 in 33 W/m2
11:43 54.7 °F 48.6 °F 29.68 in NW 3.0 mph 7.0 mph 80% 0.26 in 9 W/m2
11:49 50.2 °F 43.9 °F 29.68 in NW 4.0 mph 5.0 mph 79% 0.97 in 14 W/m2
11:55 48.1 °F 43.8 °F 29.68 in NNW 4.0 mph 7.0 mph 85% 0.57 in 16 W/m2
12:02 47.8 °F 44.1 °F 29.67 in NNW 3.0 mph 3.0 mph 87% 0.23 in 28 W/m2
12:08 47.8 °F 44.4 °F 29.67 in NNW 1.0 mph 3.0 mph 88% 0.11 in 49 W/m2
12:13 47.9 °F 44.8 °F 29.67 in Calm     89% 0.06 in 54 W/m2
12:19 48.2 °F 45.4 °F 29.66 in Calm     90% 0.04 in 118 W/m2
12:25 48.6 °F 45.8 °F 29.66 in Calm     90% 0.00 in 141 W/m2
12:32 49.1 °F 46.3 °F 29.66 in Calm   2.0 mph 90% 0.00 in 214 W/m2
12:38 50.1 °F 47.6 °F 29.65 in SSW 1.0 mph 3.0 mph 91% 0.00 in 330 W/m2
12:43 50.5 °F 48.0 °F 29.65 in WSW 2.0 mph 5.0 mph 91% 0.00 in 559 W/m2
12:49 52.3 °F 50.0 °F 29.65 in WSW 2.0 mph 2.0 mph 92% 0.00 in 705 W/m2
12:55 53.5 °F 50.3 °F 29.65 in WSW 1.0 mph 2.0 mph 89% 0.00 in 986 W/m2
13:02 54.4 °F 50.6 °F 29.64 in SSW 1.0 mph 5.0 mph 87% 0.00 in 896 W/m2
13:08 55.9 °F 51.8 °F 29.64 in West 2.0 mph 5.0 mph 86% 0.00 in 951 W/m2
13:15 56.4 °F 49.6 °F 29.64 in WNW 1.0 mph 1.0 mph 78% 0.00 in 967 W/m2
13:22 57.5 °F 50.7 °F 29.63 in West 1.0 mph 3.0 mph 78% 0.00 in 958 W/m2
13:28 58.5 °F 52.0 °F 29.63 in West 1.0 mph 1.0 mph 79% 0.00 in 949 W/m2
13:33 59.3 °F 51.4 °F 29.63 in WNW 1.0 mph 4.0 mph 75% 0.00 in 1013 W/m2
13:39 59.3 °F 49.1 °F 29.63 in NW 3.0 mph 8.0 mph 69% 0.00 in 1111 W/m2
13:45 60.1 °F 51.0 °F 29.63 in NNW 3.0 mph 3.0 mph 72% 0.00 in 1139 W/m2
13:51 60.0 °F 49.0 °F 29.63 in NNW 2.0 mph 6.0 mph 67% 0.00 in 253 W/m2
13:58 60.2 °F 49.6 °F 29.63 in WNW 3.0 mph 3.0 mph 68% 0.00 in 1011 W/m2
14:03 59.9 °F 46.8 °F 29.62 in NW 3.0 mph 5.0 mph 62% 0.00 in 1021 W/m2
14:09 60.1 °F 48.3 °F 29.62 in NW 3.0 mph 3.0 mph 65% 0.00 in 1021 W/m2
14:15 61.2 °F 48.9 °F 29.62 in WNW 3.0 mph 5.0 mph 64% 0.00 in 1025 W/m2
14:21 60.7 °F 45.8 °F 29.62 in NNW 4.0 mph 8.0 mph 58% 0.00 in 1086 W/m2
14:28 60.8 °F 47.7 °F 29.61 in NW 4.0 mph 8.0 mph 62% 0.00 in 930 W/m2
14:33 61.1 °F 44.8 °F 29.61 in WNW 3.0 mph 4.0 mph 55% 0.00 in 949 W/m2
14:39 60.8 °F 46.8 °F 29.60 in NNW 3.0 mph 3.0 mph 60% 0.00 in 940 W/m2
14:45 61.3 °F 45.0 °F 29.60 in NNW 4.0 mph 4.0 mph 55% 0.00 in 930 W/m2
14:51 61.6 °F 46.2 °F 29.60 in NW 4.0 mph 9.0 mph 57% 0.00 in 919 W/m2
14:58 61.8 °F 45.0 °F 29.60 in NW 3.0 mph 9.0 mph 54% 0.00 in 867 W/m2
15:03 62.1 °F 45.2 °F 29.60 in NW 3.0 mph 5.0 mph 54% 0.00 in 849 W/m2
15:09 62.3 °F 43.9 °F 29.59 in NNW 4.0 mph 4.0 mph 51% 0.00 in 838 W/m2
15:15 62.4 °F 44.0 °F 29.59 in North 5.0 mph 5.0 mph 51% 0.00 in 826 W/m2
15:22 62.6 °F 41.5 °F 29.58 in NW 4.0 mph 7.0 mph 46% 0.00 in 816 W/m2
15:28 62.2 °F 43.8 °F 29.58 in NW 4.0 mph 8.0 mph 51% 0.00 in 805 W/m2
15:33 62.7 °F 43.8 °F 29.58 in WNW 4.0 mph 4.0 mph 50% 0.00 in 816 W/m2
15:39 63.3 °F 42.2 °F 29.58 in NNW 4.0 mph 5.0 mph 46% 0.00 in 812 W/m2
15:45 62.5 °F 43.1 °F 29.58 in NW 5.0 mph 5.0 mph 49% 0.00 in 176 W/m2
15:51 62.1 °F 42.7 °F 29.58 in NNW 4.0 mph 5.0 mph 49% 0.00 in 870 W/m2
15:58 61.3 °F 41.4 °F 29.58 in WNW 4.0 mph 5.0 mph 48% 0.00 in 213 W/m2
16:03 61.0 °F 42.2 °F 29.58 in NNW 4.0 mph 7.0 mph 50% 0.00 in 288 W/m2
16:09 62.4 °F 41.9 °F 29.58 in NW 4.0 mph 8.0 mph 47% 0.00 in 875 W/m2
16:15 62.3 °F 41.2 °F 29.58 in NW 3.0 mph 8.0 mph 46% 0.00 in 824 W/m2
16:21 62.7 °F 41.6 °F 29.58 in NNW 4.0 mph 7.0 mph 46% 0.00 in 784 W/m2
16:28 61.9 °F 40.9 °F 29.58 in NNW 3.0 mph 10.0 mph 46% 0.00 in 193 W/m2
16:33 61.1 °F 41.2 °F 29.59 in NW 4.0 mph 8.0 mph 48% 0.00 in 197 W/m2
16:39 60.5 °F 41.2 °F 29.59 in NW 5.0 mph 5.0 mph 49% 0.00 in 237 W/m2
16:45 61.7 °F 41.8 °F 29.59 in SSE 3.0 mph 5.0 mph 48% 0.00 in 770 W/m2
16:52 61.6 °F 42.2 °F 29.59 in NW 3.0 mph 3.0 mph 49% 0.00 in 754 W/m2
16:58 61.6 °F 40.6 °F 29.59 in WSW 4.0 mph 7.0 mph 46% 0.00 in 608 W/m2
17:03 60.6 °F 41.8 °F 29.60 in NW 5.0 mph 5.0 mph 50% 0.00 in 396 W/m2
17:09 59.8 °F 42.1 °F 29.60 in NNW 5.0 mph 7.0 mph 52% 0.00 in 167 W/m2
17:15 59.1 °F 42.9 °F 29.60 in NW 5.0 mph 13.0 mph 55% 0.00 in 107 W/m2
17:22 58.6 °F 42.0 °F 29.60 in NW 5.0 mph 5.0 mph 54% 0.00 in 95 W/m2
17:28 58.4 °F 43.7 °F 29.61 in NW 4.0 mph 5.0 mph 58% 0.00 in 70 W/m2
17:33 57.7 °F 42.1 °F 29.61 in NW 4.0 mph 9.0 mph 56% 0.00 in 97 W/m2
17:39 57.0 °F 41.0 °F 29.62 in WNW 4.0 mph 4.0 mph 55% 0.00 in 120 W/m2
17:45 56.5 °F 42.8 °F 29.62 in NW 2.0 mph 4.0 mph 60% 0.00 in 128 W/m2
17:51 56.0 °F 41.0 °F 29.62 in NW 3.0 mph 3.0 mph 57% 0.00 in 114 W/m2
17:58 55.7 °F 41.6 °F 29.62 in NW 3.0 mph 3.0 mph 59% 0.00 in 69 W/m2
18:03 55.4 °F 40.9 °F 29.63 in NNW 2.0 mph 3.0 mph 58% 0.00 in 44 W/m2
18:09 55.2 °F 42.0 °F 29.63 in NNW 1.0 mph 1.0 mph 61% 0.00 in 32 W/m2
18:15 54.9 °F 41.3 °F 29.63 in West 1.0 mph 4.0 mph 60% 0.00 in 39 W/m2
18:21 54.3 °F 41.1 °F 29.63 in NW 3.0 mph 4.0 mph 61% 0.00 in 70 W/m2
18:28 54.0 °F 41.3 °F 29.63 in North 3.0 mph 4.0 mph 62% 0.00 in 70 W/m2
18:33 53.8 °F 41.5 °F 29.63 in NW 2.0 mph 3.0 mph 63% 0.00 in 69 W/m2
18:39 53.7 °F 41.4 °F 29.63 in NW 2.0 mph 3.0 mph 63% 0.00 in 47 W/m2
18:45 53.6 °F 40.9 °F 29.64 in NW 2.0 mph 5.0 mph 62% 0.00 in 26 W/m2
18:52 53.1 °F 40.0 °F 29.64 in WNW 4.0 mph 4.0 mph 61% 0.00 in 26 W/m2
18:58 52.7 °F 40.5 °F 29.65 in West 4.0 mph 4.0 mph 63% 0.00 in 21 W/m2
19:03 52.5 °F 40.7 °F 29.65 in WNW 3.0 mph 4.0 mph 64% 0.00 in 21 W/m2
19:09 51.9 °F 41.3 °F 29.65 in WNW 3.0 mph 3.0 mph 67% 0.00 in 19 W/m2
19:15 51.1 °F 41.3 °F 29.65 in NW 3.0 mph 8.0 mph 69% 0.00 in 28 W/m2
19:21 50.9 °F 41.5 °F 29.65 in NW 3.0 mph 5.0 mph 70% 0.00 in 35 W/m2
19:28 50.8 °F 41.4 °F 29.65 in NW 2.0 mph 5.0 mph 70% 0.00 in 30 W/m2
19:33 50.8 °F 41.7 °F 29.65 in NW 1.0 mph 4.0 mph 71% 0.00 in 26 W/m2
19:39 50.6 °F 41.5 °F 29.65 in WSW 2.0 mph 3.0 mph 71% 0.00 in 16 W/m2
19:45 50.4 °F 41.3 °F 29.65 in NW 2.0 mph 3.0 mph 71% 0.00 in 12 W/m2
19:52 50.1 °F 41.4 °F 29.65 in WNW 1.0 mph 2.0 mph 72% 0.00 in 11 W/m2
19:58 49.9 °F 41.6 °F 29.65 in WNW 1.0 mph 2.0 mph 73% 0.00 in 9 W/m2
20:03 49.8 °F 41.5 °F 29.65 in NW 1.0 mph 3.0 mph 73% 0.00 in 7 W/m2
20:09 49.7 °F 41.7 °F 29.66 in NW 1.0 mph 1.0 mph 74% 0.00 in 5 W/m2
20:15 49.7 °F 42.1 °F 29.66 in NW 1.0 mph 1.0 mph 75% 0.00 in 0 W/m2
20:22 49.7 °F 42.1 °F 29.66 in NW 1.0 mph 1.0 mph 75% 0.00 in 0 W/m2
20:28 49.8 °F 42.2 °F 29.67 in NW 1.0 mph 1.0 mph 75% 0.00 in 0 W/m2
20:33 50.0 °F 42.4 °F 29.67 in NW 1.0 mph 5.0 mph 75% 0.00 in 0 W/m2
20:39 50.1 °F 42.5 °F 29.68 in WNW 2.0 mph 2.0 mph 75% 0.00 in 0 W/m2
20:45 50.1 °F 42.5 °F 29.68 in NW 1.0 mph 3.0 mph 75% 0.00 in 0 W/m2
20:51 50.0 °F 42.7 °F 29.68 in WNW 1.0 mph 1.0 mph 76% 0.00 in 0 W/m2
20:58 49.6 °F 42.3 °F 29.68 in NNW 1.0 mph 4.0 mph 76% 0.00 in 0 W/m2
21:03 49.4 °F 42.5 °F 29.68 in NW 1.0 mph 3.0 mph 77% 0.00 in 0 W/m2
21:09 49.2 °F 42.6 °F 29.69 in NW 1.0 mph 1.0 mph 78% 0.00 in 0 W/m2
21:15 48.9 °F 42.7 °F 29.69 in WNW 1.0 mph 6.0 mph 79% 0.00 in 0 W/m2
21:21 48.8 °F 42.9 °F 29.69 in SW 2.0 mph 2.0 mph 80% 0.00 in 0 W/m2
21:28 48.8 °F 43.2 °F 29.69 in NNW 1.0 mph 2.0 mph 81% 0.00 in 0 W/m2
21:33 48.8 °F 43.2 °F 29.70 in WNW 1.0 mph 4.0 mph 81% 0.00 in 0 W/m2
21:39 48.8 °F 43.2 °F 29.70 in West 2.0 mph 2.0 mph 81% 0.00 in 0 W/m2
21:45 48.9 °F 43.3 °F 29.70 in West 1.0 mph 2.0 mph 81% 0.00 in 0 W/m2
21:52 48.9 °F 43.3 °F 29.70 in WNW 1.0 mph 1.0 mph 81% 0.00 in 0 W/m2
21:58 48.9 °F 43.3 °F 29.69 in WNW 1.0 mph 3.0 mph 81% 0.00 in 0 W/m2
22:03 48.9 °F 43.3 °F 29.70 in WSW 1.0 mph 2.0 mph 81% 0.00 in 0 W/m2
22:09 48.9 °F 43.3 °F 29.70 in NW 1.0 mph 1.0 mph 81% 0.00 in 0 W/m2
22:15 49.0 °F 43.4 °F 29.69 in NW 2.0 mph 5.0 mph 81% 0.00 in 0 W/m2
22:21 49.0 °F 43.4 °F 29.69 in NNW 1.0 mph 2.0 mph 81% 0.00 in 0 W/m2
22:28 49.1 °F 43.5 °F 29.69 in NW 1.0 mph 4.0 mph 81% 0.00 in 0 W/m2
22:33 49.2 °F 43.6 °F 29.69 in NNW 1.0 mph 2.0 mph 81% 0.00 in 0 W/m2
22:39 49.3 °F 43.7 °F 29.69 in West 1.0 mph 1.0 mph 81% 0.00 in 0 W/m2
22:45 49.4 °F 43.5 °F 29.69 in NW 1.0 mph 2.0 mph 80% 0.00 in 0 W/m2
22:52 49.5 °F 43.9 °F 29.69 in WNW 1.0 mph 1.0 mph 81% 0.00 in 0 W/m2
22:58 49.5 °F 43.9 °F 29.69 in NNW 1.0 mph 1.0 mph 81% 0.00 in 0 W/m2
23:03 49.6 °F 43.7 °F 29.70 in WNW 1.0 mph 2.0 mph 80% 0.00 in 0 W/m2
23:09 49.6 °F 43.7 °F 29.70 in WNW 1.0 mph 3.0 mph 80% 0.00 in 0 W/m2
23:15 49.6 °F 43.7 °F 29.69 in NW 2.0 mph 4.0 mph 80% 0.00 in 0 W/m2
23:22 49.5 °F 43.9 °F 29.69 in WNW 2.0 mph 2.0 mph 81% 0.00 in 0 W/m2
23:28 49.3 °F 44.0 °F 29.69 in West 1.0 mph 2.0 mph 82% 0.00 in 0 W/m2
23:33 49.2 °F 43.9 °F 29.70 in WNW 1.0 mph 3.0 mph 82% 0.00 in 0 W/m2
23:39 49.2 °F 43.9 °F 29.70 in WNW 1.0 mph 1.0 mph 82% 0.00 in 0 W/m2
23:45 49.3 °F 44.0 °F 29.70 in NW 1.0 mph 2.0 mph 82% 0.00 in 0 W/m2
23:52 49.2 °F 44.3 °F 29.70 in WNW 1.0 mph 2.0 mph 83% 0.00 in 0 W/m2
23:58 49.3 °F 44.0 °F 29.70 in NW 1.0 mph 2.0 mph 82% 0.00 in 0 W/m2
Country Meadow, Clay, NY, USA
Compliments of Weather Underground - 2 mb